createdAt,value
2023-03-21T00:02:33.543Z,8.07
2023-03-21T00:05:20.757Z,7.47
2023-03-21T00:08:07.450Z,7.50
2023-03-21T00:10:58.313Z,7.53
2023-03-21T00:13:45.071Z,7.07
2023-03-21T00:16:34.386Z,8.23
2023-03-21T00:19:26.513Z,7.30
2023-03-21T00:22:13.385Z,8.30
2023-03-21T00:24:59.642Z,7.70
2023-03-21T00:28:05.192Z,7.33
2023-03-21T00:30:59.179Z,6.67
2023-03-21T00:33:45.951Z,6.40
2023-03-21T00:36:33.794Z,7.00
2023-03-21T00:39:20.167Z,7.03
2023-03-21T00:42:06.674Z,7.53
2023-03-21T00:44:53.435Z,7.50
2023-03-21T00:47:39.993Z,7.33
2023-03-21T00:50:26.940Z,8.47
2023-03-21T00:53:15.627Z,7.53
2023-03-21T00:56:01.934Z,7.03
2023-03-21T00:58:53.234Z,8.00
2023-03-21T01:01:39.737Z,7.60
2023-03-21T01:04:26.977Z,6.67
2023-03-21T01:07:13.542Z,6.50
2023-03-21T01:10:01.503Z,6.43
2023-03-21T01:12:51.712Z,6.23
2023-03-21T01:15:43.585Z,6.47
2023-03-21T01:18:31.722Z,6.10
2023-03-21T01:21:18.862Z,6.07
2023-03-21T01:24:05.833Z,5.70
2023-03-21T01:26:53.679Z,5.90
2023-03-21T01:29:40.370Z,6.13
2023-03-21T01:32:26.861Z,5.57
2023-03-21T01:35:13.232Z,5.93
2023-03-21T01:37:59.843Z,6.63
2023-03-21T01:40:47.472Z,5.80
2023-03-21T01:43:37.355Z,6.10
2023-03-21T01:46:49.360Z,6.17
2023-03-21T01:49:46.040Z,6.57
2023-03-21T01:52:38.362Z,5.63
2023-03-21T01:55:26.825Z,5.40
2023-03-21T01:58:18.224Z,6.37
2023-03-21T02:01:07.876Z,6.57
2023-03-21T02:03:55.727Z,5.87
2023-03-21T02:06:51.306Z,5.73
2023-03-21T02:09:40.352Z,6.40
2023-03-21T02:12:29.435Z,6.03
2023-03-21T02:15:17.058Z,7.17
2023-03-21T02:18:09.524Z,7.13
2023-03-21T02:21:24.525Z,6.13
2023-03-21T02:24:59.534Z,6.40
2023-03-21T02:27:53.496Z,6.27
2023-03-21T02:30:57.765Z,6.30
2023-03-21T02:34:25.889Z,5.83
2023-03-21T02:37:28.942Z,6.27
2023-03-21T02:40:27.059Z,6.07
2023-03-21T02:43:23.726Z,5.63
2023-03-21T02:46:17.196Z,5.80
2023-03-21T02:49:12.606Z,5.93
2023-03-21T02:52:12.258Z,5.60
2023-03-21T02:55:06.580Z,5.90
2023-03-21T02:58:06.890Z,5.53
2023-03-21T03:00:57.449Z,5.90
2023-03-21T03:03:43.906Z,5.70
2023-03-21T03:06:38.906Z,6.53
2023-03-21T03:09:40.109Z,5.63
2023-03-21T03:12:40.593Z,5.80
2023-03-21T03:15:38.642Z,5.40
2023-03-21T03:18:32.902Z,6.10
2023-03-21T03:21:23.159Z,6.73
2023-03-21T03:24:27.613Z,6.13
2023-03-21T03:27:22.697Z,5.77
2023-03-21T03:30:17.154Z,5.90
2023-03-21T03:33:08.529Z,6.37
2023-03-21T03:36:04.989Z,6.70
2023-03-21T03:38:54.492Z,6.43
2023-03-21T03:44:55.909Z,6.80
2023-03-21T03:47:56.835Z,6.70
2023-03-21T03:50:48.852Z,6.83
2023-03-21T03:53:40.090Z,6.60
2023-03-21T03:56:29.124Z,6.50
2023-03-21T03:59:19.335Z,6.33
2023-03-21T04:02:09.790Z,6.73
2023-03-21T04:04:58.330Z,6.80
2023-03-21T04:07:46.145Z,6.60
2023-03-21T04:10:32.800Z,6.27
2023-03-21T04:13:19.125Z,6.73
2023-03-21T04:16:06.954Z,6.60
2023-03-21T04:18:53.646Z,6.70
2023-03-21T04:21:41.539Z,6.53
2023-03-21T04:24:33.342Z,5.43
2023-03-21T04:27:20.033Z,6.30
2023-03-21T04:30:07.683Z,6.17
2023-03-21T04:32:57.046Z,6.13
2023-03-21T04:35:45.522Z,6.47
2023-03-21T04:38:33.969Z,6.23
2023-03-21T04:41:20.741Z,5.70
2023-03-21T04:44:07.675Z,5.80
2023-03-21T04:46:57.274Z,6.33
2023-03-21T04:49:43.765Z,5.90
2023-03-21T04:52:30.726Z,5.50
2023-03-21T04:55:21.612Z,6.10
2023-03-21T04:58:08.084Z,5.20
2023-03-21T05:00:54.714Z,5.37
2023-03-21T05:03:41.473Z,5.17
2023-03-21T05:06:28.788Z,5.20
2023-03-21T05:09:18.145Z,5.67
2023-03-21T05:12:06.537Z,5.20
2023-03-21T05:14:55.245Z,5.47
2023-03-21T05:17:42.646Z,5.90
2023-03-21T05:20:28.994Z,6.43
2023-03-21T05:23:18.433Z,6.53
2023-03-21T05:26:06.961Z,5.93
2023-03-21T05:28:54.622Z,6.00
2023-03-21T05:31:41.242Z,7.37
2023-03-21T05:34:28.625Z,9.20
2023-03-21T05:37:15.500Z,6.17
2023-03-21T05:40:02.137Z,6.60
2023-03-21T05:42:49.460Z,6.20
2023-03-21T05:45:37.692Z,5.70
2023-03-21T05:48:24.506Z,6.07
2023-03-21T05:51:11.171Z,6.00
2023-03-21T05:53:57.637Z,6.13
2023-03-21T05:56:44.143Z,6.33
2023-03-21T05:59:30.794Z,11.83
2023-03-21T06:02:18.721Z,6.43
2023-03-21T06:05:05.315Z,8.13
2023-03-21T06:07:51.945Z,6.30
2023-03-21T06:10:38.280Z,9.20
2023-03-21T06:13:24.657Z,6.50
2023-03-21T06:16:11.307Z,8.77
2023-03-21T06:18:59.624Z,8.50
2023-03-21T06:21:46.226Z,10.73
2023-03-21T06:24:34.501Z,11.20
2023-03-21T06:27:27.900Z,6.83
2023-03-21T06:30:15.827Z,6.83
2023-03-21T06:33:02.665Z,5.50
2023-03-21T06:35:54.076Z,6.27
2023-03-21T06:38:40.430Z,6.23
2023-03-21T06:41:26.852Z,6.03
2023-03-21T06:44:16.268Z,5.60
2023-03-21T06:47:02.850Z,5.33
2023-03-21T06:49:49.208Z,7.50
2023-03-21T06:52:37.190Z,6.53
2023-03-21T06:55:26.758Z,5.90
2023-03-21T06:58:13.371Z,5.57
2023-03-21T07:01:00.473Z,5.23
2023-03-21T07:03:47.326Z,5.80
2023-03-21T07:06:34.384Z,6.50
2023-03-21T07:09:24.576Z,6.17
2023-03-21T07:12:13.420Z,5.47
2023-03-21T07:14:59.894Z,6.77
2023-03-21T07:17:46.379Z,6.83
2023-03-21T07:20:33.079Z,6.70
2023-03-21T07:23:20.378Z,5.63
2023-03-21T07:26:09.216Z,5.50
2023-03-21T07:28:55.820Z,5.37
2023-03-21T07:31:42.390Z,5.33
2023-03-21T07:34:33.071Z,4.97
2023-03-21T07:37:20.223Z,4.77
2023-03-21T07:40:10.414Z,5.07
2023-03-21T07:42:58.226Z,5.07
2023-03-21T07:45:44.974Z,5.30
2023-03-21T07:48:31.839Z,4.78
2023-03-21T07:51:18.342Z,4.68
2023-03-21T07:54:05.405Z,4.55
2023-03-21T07:56:51.981Z,4.93
2023-03-21T07:59:39.957Z,5.35
2023-03-21T08:02:27.057Z,4.75
2023-03-21T08:05:13.664Z,4.97
2023-03-21T08:08:00.077Z,4.45
2023-03-21T08:10:46.682Z,4.63
2023-03-21T08:13:33.398Z,8.63
2023-03-21T08:16:21.613Z,6.93
2023-03-21T08:19:08.188Z,4.93
2023-03-21T08:21:54.665Z,4.90
2023-03-21T08:24:41.200Z,4.72
2023-03-21T08:27:27.550Z,5.55
2023-03-21T08:30:16.505Z,4.95
2023-03-21T08:33:05.746Z,5.07
2023-03-21T08:35:52.292Z,4.93
2023-03-21T08:38:39.529Z,9.73
2023-03-21T08:41:26.292Z,4.40
2023-03-21T08:44:13.161Z,5.00
2023-03-21T08:46:59.515Z,5.63
2023-03-21T08:49:47.314Z,4.60
2023-03-21T08:52:34.257Z,5.03
2023-03-21T08:55:21.323Z,4.90
2023-03-21T08:58:08.140Z,4.90
2023-03-21T09:00:54.984Z,4.65
2023-03-21T09:03:41.633Z,4.05
2023-03-21T09:06:30.029Z,4.90
2023-03-21T09:09:16.726Z,4.82
2023-03-21T09:12:03.348Z,8.02
2023-03-21T09:14:50.081Z,7.85
2023-03-21T09:17:42.133Z,4.30
2023-03-21T09:20:32.908Z,4.25
2023-03-21T09:23:21.720Z,4.40
2023-03-21T09:26:11.402Z,3.63
2023-03-21T09:28:58.757Z,3.90
2023-03-21T09:31:46.693Z,3.78
2023-03-21T09:34:33.586Z,3.50
2023-03-21T09:37:21.177Z,3.22
2023-03-21T09:40:17.264Z,3.95
2023-03-21T09:43:13.157Z,3.88
2023-03-21T09:46:06.446Z,3.92
2023-03-21T09:48:59.775Z,3.83
2023-03-21T09:51:52.869Z,3.80
2023-03-21T09:54:43.008Z,3.80
2023-03-21T09:57:35.146Z,3.88
2023-03-21T10:00:29.625Z,4.40
2023-03-21T10:03:23.829Z,5.95
2023-03-21T10:06:15.752Z,4.68
2023-03-21T10:09:07.379Z,4.50
2023-03-21T10:11:58.163Z,10.98
2023-03-21T10:14:49.053Z,11.10
2023-03-21T10:17:41.071Z,4.55
2023-03-21T10:20:30.565Z,4.93
2023-03-21T10:23:19.864Z,5.50
2023-03-21T10:26:10.288Z,4.93
2023-03-21T10:29:01.936Z,4.95
2023-03-21T10:31:51.590Z,4.82
2023-03-21T10:34:43.058Z,4.70
2023-03-21T10:37:29.755Z,4.75
2023-03-21T10:40:17.664Z,4.85
2023-03-21T10:43:30.915Z,8.88
2023-03-21T10:46:21.145Z,5.47
2023-03-21T10:49:09.872Z,4.97
2023-03-21T10:51:59.640Z,5.60
2023-03-21T10:54:48.343Z,5.43
2023-03-21T10:57:37.982Z,5.05
2023-03-21T11:00:29.140Z,4.95
2023-03-21T11:03:24.281Z,4.88
2023-03-21T11:06:17.758Z,4.97
2023-03-21T11:09:09.598Z,6.68
2023-03-21T11:12:02.954Z,4.93
2023-03-21T11:14:50.904Z,5.72
2023-03-21T11:17:37.520Z,4.82
2023-03-21T11:20:24.596Z,4.97
2023-03-21T11:23:14.374Z,5.53
2023-03-21T11:26:02.422Z,5.75
2023-03-21T11:28:49.088Z,5.32
2023-03-21T11:31:40.417Z,5.65
2023-03-21T11:34:44.571Z,5.65
2023-03-21T11:37:34.260Z,5.95
2023-03-21T11:40:28.454Z,9.05
2023-03-21T11:43:29.411Z,6.97
2023-03-21T11:46:15.925Z,5.63
2023-03-21T11:49:03.454Z,5.82
2023-03-21T11:51:57.800Z,5.22
2023-03-21T11:55:11.723Z,5.32
2023-03-21T11:58:14.855Z,5.35
2023-03-21T12:01:10.968Z,5.50
2023-03-21T12:04:08.637Z,5.22
2023-03-21T12:07:01.465Z,6.20
2023-03-21T12:09:55.225Z,5.72
2023-03-21T12:12:50.654Z,6.18
2023-03-21T12:15:44.522Z,5.63
2023-03-21T12:18:46.669Z,5.63
2023-03-21T12:21:40.910Z,5.97
2023-03-21T12:24:34.507Z,10.15
2023-03-21T12:27:34.368Z,6.45
2023-03-21T12:30:45.138Z,6.05
2023-03-21T12:33:54.386Z,6.20
2023-03-21T12:36:56.247Z,6.20
2023-03-21T12:39:44.758Z,5.30
2023-03-21T12:42:51.949Z,5.60
2023-03-21T12:45:47.233Z,5.22
2023-03-21T12:48:47.392Z,5.30
2023-03-21T12:51:37.709Z,5.10
2023-03-21T12:54:29.851Z,5.97
2023-03-21T12:57:21.178Z,13.80
2023-03-21T13:00:17.568Z,5.30
2023-03-21T13:03:10.110Z,5.00
2023-03-21T13:06:01.559Z,5.65
2023-03-21T13:08:53.724Z,6.43
2023-03-21T13:11:40.794Z,5.57
2023-03-21T13:14:31.737Z,7.07
2023-03-21T13:17:26.545Z,5.90
2023-03-21T13:20:21.373Z,6.03
2023-03-21T13:23:10.048Z,6.10
2023-03-21T13:25:59.112Z,5.53
2023-03-21T13:28:49.176Z,6.38
2023-03-21T13:31:51.061Z,5.20
2023-03-21T13:34:41.548Z,4.78
2023-03-21T13:37:33.333Z,4.60
2023-03-21T13:40:26.972Z,5.10
2023-03-21T13:43:33.905Z,5.05
2023-03-21T13:46:52.220Z,5.60
2023-03-21T13:49:39.892Z,5.20
2023-03-21T13:52:28.673Z,5.30
2023-03-21T13:55:20.812Z,8.68
2023-03-21T13:58:33.334Z,9.20
2023-03-21T14:01:28.923Z,5.63
2023-03-21T14:04:18.249Z,4.32
2023-03-21T14:07:09.545Z,5.15
2023-03-21T14:09:59.980Z,5.32
2023-03-21T14:12:47.701Z,5.35
2023-03-21T14:15:53.116Z,5.32
2023-03-21T14:18:59.548Z,5.25
2023-03-21T14:21:53.346Z,5.70
2023-03-21T14:24:41.182Z,5.68
2023-03-21T14:27:31.938Z,5.13
2023-03-21T14:30:24.489Z,5.32
2023-03-21T14:33:18.844Z,5.22
2023-03-21T14:36:08.848Z,6.00
2023-03-21T14:38:59.381Z,5.45
2023-03-21T14:41:49.705Z,5.32
2023-03-21T14:44:53.396Z,4.93
2023-03-21T14:47:40.182Z,4.85
2023-03-21T14:50:35.884Z,5.43
2023-03-21T14:53:26.820Z,4.03
2023-03-21T14:56:25.203Z,4.35
2023-03-21T14:59:15.783Z,4.13
2023-03-21T15:02:06.069Z,3.95
2023-03-21T15:04:55.285Z,4.10
2023-03-21T15:07:43.615Z,4.20
2023-03-21T15:10:33.524Z,4.50
2023-03-21T15:13:23.422Z,4.38
2023-03-21T15:16:12.345Z,3.80
2023-03-21T15:19:00.177Z,5.05
2023-03-21T15:21:49.936Z,4.18
2023-03-21T15:24:42.306Z,4.80
2023-03-21T15:27:32.670Z,4.63
2023-03-21T15:30:24.955Z,4.38
2023-03-21T15:33:13.656Z,4.82
2023-03-21T15:36:02.688Z,4.55
2023-03-21T15:38:51.070Z,4.75
2023-03-21T15:41:46.156Z,4.57
2023-03-21T15:44:35.664Z,4.68
2023-03-21T15:47:42.700Z,5.00
2023-03-21T15:50:35.918Z,4.95
2023-03-21T15:53:25.386Z,5.18
2023-03-21T15:56:16.083Z,5.78
2023-03-21T15:59:06.480Z,10.82
2023-03-21T16:01:53.044Z,5.18
2023-03-21T16:04:58.109Z,5.30
2023-03-21T16:07:47.189Z,6.05
2023-03-21T16:10:36.849Z,5.00
2023-03-21T16:13:23.992Z,5.15
2023-03-21T16:16:17.845Z,5.10
2023-03-21T16:19:07.118Z,5.05
2023-03-21T16:21:57.238Z,5.43
2023-03-21T16:24:44.055Z,4.75
2023-03-21T16:27:30.942Z,5.30
2023-03-21T16:30:20.058Z,5.90
2023-03-21T16:33:13.340Z,5.82
2023-03-21T16:36:00.725Z,5.05
2023-03-21T16:38:49.520Z,6.65
2023-03-21T16:41:36.267Z,5.35
2023-03-21T16:44:22.638Z,5.95
2023-03-21T16:47:17.169Z,5.95
2023-03-21T16:50:22.646Z,5.78
2023-03-21T16:53:09.360Z,5.00
2023-03-21T16:55:56.308Z,5.35
2023-03-21T16:58:43.034Z,8.93
2023-03-21T17:01:30.017Z,10.95
2023-03-21T17:04:17.980Z,8.13
2023-03-21T17:07:14.172Z,11.27
2023-03-21T17:10:01.037Z,7.93
2023-03-21T17:12:47.529Z,5.60
2023-03-21T17:15:34.052Z,5.38
2023-03-21T17:18:20.501Z,6.28
2023-03-21T17:21:13.389Z,7.38
2023-03-21T17:24:01.241Z,8.30
2023-03-21T17:26:47.582Z,6.70
2023-03-21T17:29:34.023Z,7.13
2023-03-21T17:32:20.412Z,5.90
2023-03-21T17:35:09.048Z,5.95
2023-03-21T17:37:58.343Z,6.35
2023-03-21T17:40:48.020Z,16.27
2023-03-21T17:43:35.844Z,7.30
2023-03-21T17:46:26.836Z,6.20
2023-03-21T17:49:15.852Z,6.90
2023-03-21T17:52:02.094Z,5.50
2023-03-21T17:54:48.669Z,6.00
2023-03-21T17:57:37.644Z,5.97
2023-03-21T18:00:26.455Z,6.22
2023-03-21T18:03:13.334Z,5.72
2023-03-21T18:06:00.608Z,6.45
2023-03-21T18:08:48.120Z,5.40
2023-03-21T18:11:34.637Z,5.65
2023-03-21T18:14:27.871Z,6.00
2023-03-21T18:17:18.433Z,6.55
2023-03-21T18:20:09.877Z,8.90
2023-03-21T18:22:58.745Z,6.90
2023-03-21T18:25:45.257Z,7.07
2023-03-21T18:28:31.901Z,5.63
2023-03-21T18:31:21.572Z,4.80
2023-03-21T18:34:10.587Z,4.25
2023-03-21T18:36:56.936Z,5.07
2023-03-21T18:39:44.488Z,4.72
2023-03-21T18:42:31.237Z,4.63
2023-03-21T18:45:19.410Z,4.90
2023-03-21T18:48:07.733Z,5.33
2023-03-21T18:50:54.191Z,6.20
2023-03-21T18:53:40.784Z,4.87
2023-03-21T18:57:20.060Z,5.50
2023-03-21T18:59:35.250Z,4.80
2023-03-21T19:02:22.199Z,5.20
2023-03-21T19:05:11.018Z,5.20
2023-03-21T19:07:57.477Z,6.40
2023-03-21T19:10:45.168Z,5.47
2023-03-21T19:13:32.178Z,5.43
2023-03-21T19:16:19.016Z,5.30
2023-03-21T19:19:06.709Z,5.43
2023-03-21T19:21:54.516Z,5.53
2023-03-21T19:24:41.348Z,5.27
2023-03-21T19:27:28.316Z,4.93
2023-03-21T19:30:16.078Z,5.60
2023-03-21T19:33:02.773Z,5.83
2023-03-21T19:35:50.307Z,5.47
2023-03-21T19:38:38.381Z,7.33
2023-03-21T19:41:25.426Z,6.00
2023-03-21T19:44:12.301Z,5.73
2023-03-21T19:46:59.029Z,6.90
2023-03-21T19:52:52.808Z,6.07
2023-03-21T19:55:40.821Z,6.53
2023-03-21T19:58:27.654Z,6.17
2023-03-21T20:01:14.390Z,6.43
2023-03-21T20:04:00.930Z,5.83
2023-03-21T20:06:47.739Z,5.93
2023-03-21T20:09:52.946Z,5.87
2023-03-21T20:12:42.180Z,6.23
2023-03-21T20:15:30.637Z,6.10
2023-03-21T20:18:17.439Z,5.93
2023-03-21T20:21:04.448Z,6.63
2023-03-21T20:23:51.018Z,6.87
2023-03-21T20:26:37.401Z,7.23
2023-03-21T20:32:32.229Z,7.63
2023-03-21T20:35:31.413Z,7.37
2023-03-21T20:38:26.118Z,6.90
2023-03-21T20:41:12.804Z,6.73
2023-03-21T20:47:08.633Z,7.10
2023-03-21T20:49:56.697Z,7.23
2023-03-21T20:53:01.122Z,7.80
2023-03-21T20:55:50.056Z,7.70
2023-03-21T20:59:01.718Z,8.00
2023-03-21T21:01:46.911Z,8.07
2023-03-21T21:04:49.885Z,8.10
2023-03-21T21:07:41.776Z,8.40
2023-03-21T21:10:28.809Z,8.20
2023-03-21T21:13:15.172Z,8.53
2023-03-21T21:16:02.764Z,7.93
2023-03-21T21:18:49.412Z,8.10
2023-03-21T21:21:37.473Z,7.60
2023-03-21T21:24:24.306Z,8.67
2023-03-21T21:27:13.914Z,8.83
2023-03-21T21:30:01.817Z,8.83
2023-03-21T21:32:49.279Z,8.60
2023-03-21T21:35:37.041Z,8.23
2023-03-21T21:38:24.896Z,7.80
2023-03-21T21:41:18.564Z,8.53
2023-03-21T21:44:07.049Z,8.27
2023-03-21T21:46:53.577Z,8.63
2023-03-21T21:49:40.107Z,8.53
2023-03-21T21:52:27.025Z,8.33
2023-03-21T21:55:17.862Z,9.67
2023-03-21T21:58:05.009Z,16.23
2023-03-21T22:00:51.852Z,12.43
2023-03-21T22:03:41.170Z,19.00
2023-03-21T22:06:27.724Z,9.40
2023-03-21T22:09:14.084Z,9.67
2023-03-21T22:12:01.852Z,10.23
2023-03-21T22:14:48.148Z,8.63
2023-03-21T22:17:35.127Z,8.60
2023-03-21T22:20:22.353Z,8.33
2023-03-21T22:23:08.922Z,8.83
2023-03-21T22:25:55.803Z,8.70
2023-03-21T22:28:43.739Z,8.37
2023-03-21T22:31:31.648Z,8.97
2023-03-21T22:34:18.221Z,8.97
2023-03-21T22:37:04.845Z,8.60
2023-03-21T22:39:51.135Z,9.17
2023-03-21T22:42:39.602Z,9.07
2023-03-21T22:45:27.382Z,10.83
2023-03-21T22:48:14.068Z,9.40
2023-03-21T22:51:01.634Z,10.67
2023-03-21T22:53:48.195Z,14.73
2023-03-21T22:56:34.677Z,12.17
2023-03-21T22:59:21.040Z,11.17
2023-03-21T23:02:09.985Z,10.03
2023-03-21T23:04:56.742Z,10.47
2023-03-21T23:07:43.221Z,10.40
2023-03-21T23:10:29.740Z,11.07
2023-03-21T23:13:16.444Z,10.70
2023-03-21T23:16:04.895Z,9.77
2023-03-21T23:18:55.799Z,9.53
2023-03-21T23:21:44.348Z,9.27
2023-03-21T23:24:30.821Z,9.17
2023-03-21T23:27:18.168Z,8.30
2023-03-21T23:30:06.313Z,9.00
2023-03-21T23:32:53.246Z,9.53
2023-03-21T23:35:41.249Z,8.53
2023-03-21T23:38:28.112Z,8.70
2023-03-21T23:41:16.370Z,10.10
2023-03-21T23:44:03.424Z,8.87
2023-03-21T23:46:51.139Z,10.60
2023-03-21T23:49:39.123Z,8.27
2023-03-21T23:52:27.133Z,8.67
2023-03-21T23:55:27.672Z,9.57
2023-03-21T23:58:14.554Z,8.90
